sensor_id;sensor_type;location;lat;lon;timestamp;P1;durP1;ratioP1;P2;durP2;ratioP2
2772;SDS011;1394;47.044;15.744;2022-10-31T00:00:13;26.70;;;2.40;;
2772;SDS011;1394;47.044;15.744;2022-10-31T00:02:41;26.67;;;2.03;;
2772;SDS011;1394;47.044;15.744;2022-10-31T00:05:10;28.83;;;2.87;;
2772;SDS011;1394;47.044;15.744;2022-10-31T00:07:37;30.47;;;3.20;;
2772;SDS011;1394;47.044;15.744;2022-10-31T00:10:07;28.57;;;2.83;;
2772;SDS011;1394;47.044;15.744;2022-10-31T00:12:34;26.47;;;2.50;;
2772;SDS011;1394;47.044;15.744;2022-10-31T00:15:01;27.57;;;2.20;;
2772;SDS011;1394;47.044;15.744;2022-10-31T00:17:29;26.93;;;2.40;;
2772;SDS011;1394;47.044;15.744;2022-10-31T00:19:56;27.97;;;2.67;;
2772;SDS011;1394;47.044;15.744;2022-10-31T00:22:23;25.80;;;1.97;;
2772;SDS011;1394;47.044;15.744;2022-10-31T00:24:51;25.77;;;1.93;;
2772;SDS011;1394;47.044;15.744;2022-10-31T00:27:20;25.73;;;2.00;;
2772;SDS011;1394;47.044;15.744;2022-10-31T00:29:47;26.53;;;2.33;;
2772;SDS011;1394;47.044;15.744;2022-10-31T00:32:21;28.63;;;3.10;;
2772;SDS011;1394;47.044;15.744;2022-10-31T00:34:48;26.17;;;2.10;;
2772;SDS011;1394;47.044;15.744;2022-10-31T00:37:15;27.07;;;2.27;;
2772;SDS011;1394;47.044;15.744;2022-10-31T00:39:42;27.70;;;3.50;;
2772;SDS011;1394;47.044;15.744;2022-10-31T00:42:14;30.50;;;5.50;;
2772;SDS011;1394;47.044;15.744;2022-10-31T00:44:42;31.53;;;6.07;;
2772;SDS011;1394;47.044;15.744;2022-10-31T00:47:09;29.10;;;4.80;;
2772;SDS011;1394;47.044;15.744;2022-10-31T00:49:37;29.47;;;6.20;;
2772;SDS011;1394;47.044;15.744;2022-10-31T00:52:04;30.90;;;6.90;;
2772;SDS011;1394;47.044;15.744;2022-10-31T00:54:31;29.73;;;6.00;;
2772;SDS011;1394;47.044;15.744;2022-10-31T00:56:59;28.27;;;4.73;;
2772;SDS011;1394;47.044;15.744;2022-10-31T00:59:26;28.33;;;3.80;;
2772;SDS011;1394;47.044;15.744;2022-10-31T01:01:55;27.07;;;3.00;;
2772;SDS011;1394;47.044;15.744;2022-10-31T01:04:22;27.10;;;3.37;;
2772;SDS011;1394;47.044;15.744;2022-10-31T01:06:49;27.13;;;2.73;;
2772;SDS011;1394;47.044;15.744;2022-10-31T01:09:19;26.80;;;2.80;;
2772;SDS011;1394;47.044;15.744;2022-10-31T01:11:47;27.30;;;3.67;;
2772;SDS011;1394;47.044;15.744;2022-10-31T01:14:14;28.70;;;4.63;;
2772;SDS011;1394;47.044;15.744;2022-10-31T01:16:41;28.50;;;3.90;;
2772;SDS011;1394;47.044;15.744;2022-10-31T01:19:10;26.90;;;2.90;;
2772;SDS011;1394;47.044;15.744;2022-10-31T01:21:38;26.10;;;2.20;;
2772;SDS011;1394;47.044;15.744;2022-10-31T01:24:06;26.40;;;2.47;;
2772;SDS011;1394;47.044;15.744;2022-10-31T01:26:33;28.30;;;4.20;;
2772;SDS011;1394;47.044;15.744;2022-10-31T01:29:01;28.90;;;3.30;;
2772;SDS011;1394;47.044;15.744;2022-10-31T01:31:31;29.93;;;4.33;;
2772;SDS011;1394;47.044;15.744;2022-10-31T01:33:58;29.87;;;4.47;;
2772;SDS011;1394;47.044;15.744;2022-10-31T01:36:27;27.33;;;3.00;;
2772;SDS011;1394;47.044;15.744;2022-10-31T01:38:55;26.73;;;2.57;;
2772;SDS011;1394;47.044;15.744;2022-10-31T01:41:23;32.80;;;3.53;;
2772;SDS011;1394;47.044;15.744;2022-10-31T01:43:52;28.10;;;3.27;;
2772;SDS011;1394;47.044;15.744;2022-10-31T01:46:21;27.20;;;2.90;;
2772;SDS011;1394;47.044;15.744;2022-10-31T01:48:49;27.93;;;2.73;;
2772;SDS011;1394;47.044;15.744;2022-10-31T01:51:17;27.50;;;3.10;;
2772;SDS011;1394;47.044;15.744;2022-10-31T01:53:47;26.40;;;2.67;;
2772;SDS011;1394;47.044;15.744;2022-10-31T01:56:14;26.10;;;2.60;;
2772;SDS011;1394;47.044;15.744;2022-10-31T01:58:43;26.27;;;2.30;;
2772;SDS011;1394;47.044;15.744;2022-10-31T02:01:12;27.17;;;2.70;;
2772;SDS011;1394;47.044;15.744;2022-10-31T02:03:40;26.77;;;2.70;;
2772;SDS011;1394;47.044;15.744;2022-10-31T02:06:09;27.03;;;3.20;;
2772;SDS011;1394;47.044;15.744;2022-10-31T02:08:40;25.70;;;2.23;;
2772;SDS011;1394;47.044;15.744;2022-10-31T02:11:10;26.83;;;2.40;;
2772;SDS011;1394;47.044;15.744;2022-10-31T02:13:38;27.00;;;2.73;;
2772;SDS011;1394;47.044;15.744;2022-10-31T02:16:05;27.50;;;2.60;;
2772;SDS011;1394;47.044;15.744;2022-10-31T02:18:33;26.10;;;2.70;;
2772;SDS011;1394;47.044;15.744;2022-10-31T02:21:02;26.93;;;2.90;;
2772;SDS011;1394;47.044;15.744;2022-10-31T02:23:35;26.27;;;2.97;;
2772;SDS011;1394;47.044;15.744;2022-10-31T02:26:09;29.17;;;3.90;;
2772;SDS011;1394;47.044;15.744;2022-10-31T02:28:48;29.53;;;3.53;;
2772;SDS011;1394;47.044;15.744;2022-10-31T02:31:24;28.97;;;3.90;;
2772;SDS011;1394;47.044;15.744;2022-10-31T02:33:53;27.30;;;2.97;;
2772;SDS011;1394;47.044;15.744;2022-10-31T02:36:24;26.30;;;2.30;;
2772;SDS011;1394;47.044;15.744;2022-10-31T02:38:56;26.37;;;2.73;;
2772;SDS011;1394;47.044;15.744;2022-10-31T02:41:29;26.03;;;1.77;;
2772;SDS011;1394;47.044;15.744;2022-10-31T02:44:00;25.50;;;1.70;;
2772;SDS011;1394;47.044;15.744;2022-10-31T02:46:31;25.30;;;1.53;;
2772;SDS011;1394;47.044;15.744;2022-10-31T02:49:03;26.37;;;2.20;;
2772;SDS011;1394;47.044;15.744;2022-10-31T02:51:32;26.00;;;2.17;;
2772;SDS011;1394;47.044;15.744;2022-10-31T02:54:00;26.67;;;1.80;;
2772;SDS011;1394;47.044;15.744;2022-10-31T02:56:27;26.40;;;1.87;;
2772;SDS011;1394;47.044;15.744;2022-10-31T02:58:55;26.83;;;2.10;;
2772;SDS011;1394;47.044;15.744;2022-10-31T03:01:37;25.97;;;2.00;;
2772;SDS011;1394;47.044;15.744;2022-10-31T03:04:16;25.40;;;1.80;;
2772;SDS011;1394;47.044;15.744;2022-10-31T03:06:49;26.33;;;2.07;;
2772;SDS011;1394;47.044;15.744;2022-10-31T03:09:20;25.57;;;2.10;;
2772;SDS011;1394;47.044;15.744;2022-10-31T03:11:51;25.43;;;1.80;;
2772;SDS011;1394;47.044;15.744;2022-10-31T03:14:20;25.70;;;2.00;;
2772;SDS011;1394;47.044;15.744;2022-10-31T03:16:50;25.73;;;1.83;;
2772;SDS011;1394;47.044;15.744;2022-10-31T03:19:19;26.27;;;2.00;;
2772;SDS011;1394;47.044;15.744;2022-10-31T03:21:50;27.87;;;1.97;;
2772;SDS011;1394;47.044;15.744;2022-10-31T03:24:19;25.60;;;1.80;;
2772;SDS011;1394;47.044;15.744;2022-10-31T03:26:49;25.70;;;1.60;;
2772;SDS011;1394;47.044;15.744;2022-10-31T03:29:20;26.23;;;1.70;;
2772;SDS011;1394;47.044;15.744;2022-10-31T03:31:51;26.70;;;2.20;;
2772;SDS011;1394;47.044;15.744;2022-10-31T03:34:20;25.70;;;1.80;;
2772;SDS011;1394;47.044;15.744;2022-10-31T03:36:48;29.17;;;2.00;;
2772;SDS011;1394;47.044;15.744;2022-10-31T03:39:17;26.10;;;1.77;;
2772;SDS011;1394;47.044;15.744;2022-10-31T03:41:48;26.10;;;1.67;;
2772;SDS011;1394;47.044;15.744;2022-10-31T03:44:17;25.30;;;1.53;;
2772;SDS011;1394;47.044;15.744;2022-10-31T03:46:46;25.27;;;1.67;;
2772;SDS011;1394;47.044;15.744;2022-10-31T03:49:14;25.87;;;1.90;;
2772;SDS011;1394;47.044;15.744;2022-10-31T03:51:43;25.30;;;1.60;;
2772;SDS011;1394;47.044;15.744;2022-10-31T03:54:12;26.73;;;2.00;;
2772;SDS011;1394;47.044;15.744;2022-10-31T03:56:41;25.27;;;1.70;;
2772;SDS011;1394;47.044;15.744;2022-10-31T03:59:13;25.83;;;1.57;;
2772;SDS011;1394;47.044;15.744;2022-10-31T04:01:43;25.40;;;1.60;;
2772;SDS011;1394;47.044;15.744;2022-10-31T04:04:11;26.47;;;1.60;;
2772;SDS011;1394;47.044;15.744;2022-10-31T04:06:41;25.50;;;1.40;;
2772;SDS011;1394;47.044;15.744;2022-10-31T04:09:09;25.97;;;1.40;;
2772;SDS011;1394;47.044;15.744;2022-10-31T04:11:38;25.30;;;1.40;;
2772;SDS011;1394;47.044;15.744;2022-10-31T04:14:07;25.77;;;1.60;;
2772;SDS011;1394;47.044;15.744;2022-10-31T04:16:35;26.20;;;1.40;;
2772;SDS011;1394;47.044;15.744;2022-10-31T04:19:02;25.80;;;1.60;;
2772;SDS011;1394;47.044;15.744;2022-10-31T04:21:29;25.70;;;2.10;;
2772;SDS011;1394;47.044;15.744;2022-10-31T04:23:58;25.70;;;1.90;;
2772;SDS011;1394;47.044;15.744;2022-10-31T04:26:26;25.90;;;2.13;;
2772;SDS011;1394;47.044;15.744;2022-10-31T04:28:53;26.20;;;1.80;;
2772;SDS011;1394;47.044;15.744;2022-10-31T04:31:20;25.87;;;1.97;;
2772;SDS011;1394;47.044;15.744;2022-10-31T04:33:47;26.00;;;1.67;;
2772;SDS011;1394;47.044;15.744;2022-10-31T04:36:14;25.87;;;2.33;;
2772;SDS011;1394;47.044;15.744;2022-10-31T04:38:42;25.70;;;2.00;;
2772;SDS011;1394;47.044;15.744;2022-10-31T04:41:10;25.50;;;1.80;;
2772;SDS011;1394;47.044;15.744;2022-10-31T04:43:38;28.40;;;3.50;;
2772;SDS011;1394;47.044;15.744;2022-10-31T04:46:05;25.80;;;2.30;;
2772;SDS011;1394;47.044;15.744;2022-10-31T04:48:32;26.73;;;2.57;;
2772;SDS011;1394;47.044;15.744;2022-10-31T04:50:59;26.00;;;2.03;;
2772;SDS011;1394;47.044;15.744;2022-10-31T04:53:28;25.73;;;1.53;;
2772;SDS011;1394;47.044;15.744;2022-10-31T04:55:55;25.70;;;1.60;;
2772;SDS011;1394;47.044;15.744;2022-10-31T04:58:26;25.40;;;1.63;;
2772;SDS011;1394;47.044;15.744;2022-10-31T05:00:53;25.80;;;1.97;;
2772;SDS011;1394;47.044;15.744;2022-10-31T05:03:21;27.17;;;1.60;;
2772;SDS011;1394;47.044;15.744;2022-10-31T05:05:48;26.43;;;1.67;;
2772;SDS011;1394;47.044;15.744;2022-10-31T05:08:15;28.60;;;2.03;;
2772;SDS011;1394;47.044;15.744;2022-10-31T05:10:42;25.70;;;1.80;;
2772;SDS011;1394;47.044;15.744;2022-10-31T05:13:10;26.20;;;2.10;;
2772;SDS011;1394;47.044;15.744;2022-10-31T05:15:38;25.90;;;1.93;;
2772;SDS011;1394;47.044;15.744;2022-10-31T05:18:05;26.60;;;1.60;;
2772;SDS011;1394;47.044;15.744;2022-10-31T05:20:33;26.60;;;1.60;;
2772;SDS011;1394;47.044;15.744;2022-10-31T05:23:01;26.07;;;2.03;;
2772;SDS011;1394;47.044;15.744;2022-10-31T05:25:28;28.50;;;2.20;;
2772;SDS011;1394;47.044;15.744;2022-10-31T05:27:55;26.07;;;1.77;;
2772;SDS011;1394;47.044;15.744;2022-10-31T05:30:24;25.63;;;1.50;;
2772;SDS011;1394;47.044;15.744;2022-10-31T05:32:52;26.17;;;1.77;;
2772;SDS011;1394;47.044;15.744;2022-10-31T05:35:21;26.67;;;1.90;;
2772;SDS011;1394;47.044;15.744;2022-10-31T05:37:49;25.70;;;1.53;;
2772;SDS011;1394;47.044;15.744;2022-10-31T05:40:16;26.53;;;1.90;;
2772;SDS011;1394;47.044;15.744;2022-10-31T05:42:44;25.63;;;1.80;;
2772;SDS011;1394;47.044;15.744;2022-10-31T05:45:12;26.50;;;2.20;;
2772;SDS011;1394;47.044;15.744;2022-10-31T05:47:40;26.80;;;2.27;;
2772;SDS011;1394;47.044;15.744;2022-10-31T05:50:12;26.60;;;2.43;;
2772;SDS011;1394;47.044;15.744;2022-10-31T05:52:40;27.10;;;2.70;;
2772;SDS011;1394;47.044;15.744;2022-10-31T05:55:07;28.17;;;3.67;;
2772;SDS011;1394;47.044;15.744;2022-10-31T05:57:35;27.13;;;3.60;;
2772;SDS011;1394;47.044;15.744;2022-10-31T06:00:03;27.00;;;3.17;;
2772;SDS011;1394;47.044;15.744;2022-10-31T06:02:31;27.33;;;3.30;;
2772;SDS011;1394;47.044;15.744;2022-10-31T06:04:59;26.50;;;2.43;;
2772;SDS011;1394;47.044;15.744;2022-10-31T06:07:31;26.10;;;2.07;;
2772;SDS011;1394;47.044;15.744;2022-10-31T06:09:59;26.73;;;2.30;;
2772;SDS011;1394;47.044;15.744;2022-10-31T06:12:27;26.33;;;2.20;;
2772;SDS011;1394;47.044;15.744;2022-10-31T06:14:54;26.90;;;2.20;;
2772;SDS011;1394;47.044;15.744;2022-10-31T06:17:21;26.23;;;1.70;;
2772;SDS011;1394;47.044;15.744;2022-10-31T06:19:48;27.27;;;2.13;;
2772;SDS011;1394;47.044;15.744;2022-10-31T06:22:15;25.77;;;1.80;;
2772;SDS011;1394;47.044;15.744;2022-10-31T06:24:44;26.40;;;1.67;;
2772;SDS011;1394;47.044;15.744;2022-10-31T06:27:11;26.00;;;2.00;;
2772;SDS011;1394;47.044;15.744;2022-10-31T06:29:39;25.43;;;1.90;;
2772;SDS011;1394;47.044;15.744;2022-10-31T06:32:08;26.50;;;2.20;;
2772;SDS011;1394;47.044;15.744;2022-10-31T06:34:38;25.50;;;1.67;;
2772;SDS011;1394;47.044;15.744;2022-10-31T06:37:05;28.13;;;2.00;;
2772;SDS011;1394;47.044;15.744;2022-10-31T06:39:35;26.27;;;2.20;;
2772;SDS011;1394;47.044;15.744;2022-10-31T06:42:04;25.87;;;2.13;;
2772;SDS011;1394;47.044;15.744;2022-10-31T06:44:32;25.60;;;1.70;;
2772;SDS011;1394;47.044;15.744;2022-10-31T06:46:59;26.90;;;2.33;;
2772;SDS011;1394;47.044;15.744;2022-10-31T06:49:26;25.30;;;1.70;;
2772;SDS011;1394;47.044;15.744;2022-10-31T06:51:54;25.80;;;1.97;;
2772;SDS011;1394;47.044;15.744;2022-10-31T06:54:21;26.03;;;2.10;;
2772;SDS011;1394;47.044;15.744;2022-10-31T06:56:48;27.77;;;2.33;;
2772;SDS011;1394;47.044;15.744;2022-10-31T06:59:17;25.70;;;1.80;;
2772;SDS011;1394;47.044;15.744;2022-10-31T07:01:44;25.50;;;1.80;;
2772;SDS011;1394;47.044;15.744;2022-10-31T07:04:12;25.60;;;1.73;;
2772;SDS011;1394;47.044;15.744;2022-10-31T07:06:39;25.30;;;1.97;;
2772;SDS011;1394;47.044;15.744;2022-10-31T07:09:06;26.80;;;2.00;;
2772;SDS011;1394;47.044;15.744;2022-10-31T07:11:34;25.67;;;1.73;;
2772;SDS011;1394;47.044;15.744;2022-10-31T07:14:01;25.40;;;1.60;;
2772;SDS011;1394;47.044;15.744;2022-10-31T07:16:29;25.40;;;2.00;;
2772;SDS011;1394;47.044;15.744;2022-10-31T07:18:57;25.40;;;1.53;;
2772;SDS011;1394;47.044;15.744;2022-10-31T07:21:24;25.10;;;1.40;;
2772;SDS011;1394;47.044;15.744;2022-10-31T07:23:51;26.27;;;2.00;;
2772;SDS011;1394;47.044;15.744;2022-10-31T07:26:18;25.47;;;1.90;;
2772;SDS011;1394;47.044;15.744;2022-10-31T07:28:45;25.60;;;2.00;;
2772;SDS011;1394;47.044;15.744;2022-10-31T07:31:13;25.30;;;1.60;;
2772;SDS011;1394;47.044;15.744;2022-10-31T07:33:43;25.47;;;1.80;;
2772;SDS011;1394;47.044;15.744;2022-10-31T07:36:10;25.60;;;2.23;;
2772;SDS011;1394;47.044;15.744;2022-10-31T07:38:37;25.00;;;1.87;;
2772;SDS011;1394;47.044;15.744;2022-10-31T07:41:05;25.73;;;1.70;;
2772;SDS011;1394;47.044;15.744;2022-10-31T07:43:32;26.63;;;1.77;;
2772;SDS011;1394;47.044;15.744;2022-10-31T07:45:59;27.40;;;2.00;;
2772;SDS011;1394;47.044;15.744;2022-10-31T07:48:26;27.20;;;1.93;;
2772;SDS011;1394;47.044;15.744;2022-10-31T07:50:55;26.70;;;2.07;;
2772;SDS011;1394;47.044;15.744;2022-10-31T07:53:23;25.30;;;1.80;;
2772;SDS011;1394;47.044;15.744;2022-10-31T07:55:53;26.33;;;1.90;;
2772;SDS011;1394;47.044;15.744;2022-10-31T07:58:20;25.20;;;1.90;;
2772;SDS011;1394;47.044;15.744;2022-10-31T08:00:47;26.30;;;1.80;;
2772;SDS011;1394;47.044;15.744;2022-10-31T08:03:17;28.13;;;2.20;;
2772;SDS011;1394;47.044;15.744;2022-10-31T08:05:44;26.50;;;1.87;;
2772;SDS011;1394;47.044;15.744;2022-10-31T08:08:13;26.90;;;2.30;;
2772;SDS011;1394;47.044;15.744;2022-10-31T08:10:41;26.60;;;2.60;;
2772;SDS011;1394;47.044;15.744;2022-10-31T08:13:09;40.63;;;16.70;;
2772;SDS011;1394;47.044;15.744;2022-10-31T08:15:39;51.67;;;29.27;;
2772;SDS011;1394;47.044;15.744;2022-10-31T08:20:37;37.47;;;16.33;;
2772;SDS011;1394;47.044;15.744;2022-10-31T08:23:05;27.07;;;3.83;;
2772;SDS011;1394;47.044;15.744;2022-10-31T08:25:34;26.67;;;3.17;;
2772;SDS011;1394;47.044;15.744;2022-10-31T08:28:01;26.70;;;2.17;;
2772;SDS011;1394;47.044;15.744;2022-10-31T08:30:29;26.20;;;2.07;;
2772;SDS011;1394;47.044;15.744;2022-10-31T08:32:58;26.23;;;2.30;;
2772;SDS011;1394;47.044;15.744;2022-10-31T08:35:25;27.37;;;2.63;;
2772;SDS011;1394;47.044;15.744;2022-10-31T08:37:53;28.40;;;2.40;;
2772;SDS011;1394;47.044;15.744;2022-10-31T08:40:20;27.83;;;2.10;;
2772;SDS011;1394;47.044;15.744;2022-10-31T08:42:54;25.67;;;2.30;;
2772;SDS011;1394;47.044;15.744;2022-10-31T08:45:21;28.90;;;2.10;;
2772;SDS011;1394;47.044;15.744;2022-10-31T08:47:49;25.90;;;1.93;;
2772;SDS011;1394;47.044;15.744;2022-10-31T08:50:16;26.37;;;2.10;;
2772;SDS011;1394;47.044;15.744;2022-10-31T08:52:44;25.27;;;1.60;;
2772;SDS011;1394;47.044;15.744;2022-10-31T08:55:11;25.57;;;1.90;;
2772;SDS011;1394;47.044;15.744;2022-10-31T08:57:38;26.50;;;1.97;;
2772;SDS011;1394;47.044;15.744;2022-10-31T09:00:08;25.63;;;1.90;;
2772;SDS011;1394;47.044;15.744;2022-10-31T09:02:35;25.30;;;1.60;;
2772;SDS011;1394;47.044;15.744;2022-10-31T09:05:03;25.90;;;1.90;;
2772;SDS011;1394;47.044;15.744;2022-10-31T09:07:31;25.87;;;1.90;;
2772;SDS011;1394;47.044;15.744;2022-10-31T09:09:58;26.10;;;2.00;;
2772;SDS011;1394;47.044;15.744;2022-10-31T09:12:25;25.20;;;1.80;;
2772;SDS011;1394;47.044;15.744;2022-10-31T09:14:52;25.10;;;2.20;;
2772;SDS011;1394;47.044;15.744;2022-10-31T09:17:21;25.97;;;1.60;;
2772;SDS011;1394;47.044;15.744;2022-10-31T09:19:49;26.27;;;1.70;;
2772;SDS011;1394;47.044;15.744;2022-10-31T09:22:19;25.60;;;2.03;;
2772;SDS011;1394;47.044;15.744;2022-10-31T09:24:46;25.20;;;1.50;;
2772;SDS011;1394;47.044;15.744;2022-10-31T09:27:13;25.47;;;1.67;;
2772;SDS011;1394;47.044;15.744;2022-10-31T09:29:41;26.00;;;1.93;;
2772;SDS011;1394;47.044;15.744;2022-10-31T09:32:08;27.27;;;1.80;;
2772;SDS011;1394;47.044;15.744;2022-10-31T09:34:36;25.70;;;1.70;;
2772;SDS011;1394;47.044;15.744;2022-10-31T09:37:06;25.40;;;1.80;;
2772;SDS011;1394;47.044;15.744;2022-10-31T09:39:33;25.10;;;1.60;;
2772;SDS011;1394;47.044;15.744;2022-10-31T09:44:48;25.67;;;1.73;;
2772;SDS011;1394;47.044;15.744;2022-10-31T09:47:30;26.43;;;2.20;;
2772;SDS011;1394;47.044;15.744;2022-10-31T09:50:06;25.90;;;2.10;;
2772;SDS011;1394;47.044;15.744;2022-10-31T09:52:36;26.63;;;1.70;;
2772;SDS011;1394;47.044;15.744;2022-10-31T09:55:08;25.70;;;1.80;;
2772;SDS011;1394;47.044;15.744;2022-10-31T09:57:39;26.70;;;1.87;;
2772;SDS011;1394;47.044;15.744;2022-10-31T10:00:10;28.13;;;2.70;;
2772;SDS011;1394;47.044;15.744;2022-10-31T10:02:43;26.40;;;2.03;;
2772;SDS011;1394;47.044;15.744;2022-10-31T10:05:13;26.80;;;2.10;;
2772;SDS011;1394;47.044;15.744;2022-10-31T10:07:44;25.80;;;2.40;;
2772;SDS011;1394;47.044;15.744;2022-10-31T10:10:14;26.63;;;2.10;;
2772;SDS011;1394;47.044;15.744;2022-10-31T10:15:36;26.80;;;2.10;;
2772;SDS011;1394;47.044;15.744;2022-10-31T10:18:06;25.80;;;1.90;;
2772;SDS011;1394;47.044;15.744;2022-10-31T10:20:39;28.00;;;2.70;;
2772;SDS011;1394;47.044;15.744;2022-10-31T10:23:15;27.30;;;2.33;;
2772;SDS011;1394;47.044;15.744;2022-10-31T10:25:45;26.77;;;2.67;;
2772;SDS011;1394;47.044;15.744;2022-10-31T10:28:17;26.67;;;2.40;;
2772;SDS011;1394;47.044;15.744;2022-10-31T10:30:47;26.50;;;2.53;;
2772;SDS011;1394;47.044;15.744;2022-10-31T10:33:18;26.90;;;2.73;;
2772;SDS011;1394;47.044;15.744;2022-10-31T10:35:49;26.10;;;2.60;;
2772;SDS011;1394;47.044;15.744;2022-10-31T10:38:19;26.33;;;2.20;;
2772;SDS011;1394;47.044;15.744;2022-10-31T10:40:49;26.17;;;2.50;;
2772;SDS011;1394;47.044;15.744;2022-10-31T10:43:22;26.23;;;2.17;;
2772;SDS011;1394;47.044;15.744;2022-10-31T10:45:50;27.00;;;2.40;;
2772;SDS011;1394;47.044;15.744;2022-10-31T10:48:39;26.97;;;2.90;;
2772;SDS011;1394;47.044;15.744;2022-10-31T10:51:15;26.87;;;2.80;;
2772;SDS011;1394;47.044;15.744;2022-10-31T10:53:48;27.10;;;2.40;;
2772;SDS011;1394;47.044;15.744;2022-10-31T10:56:30;26.07;;;2.10;;
2772;SDS011;1394;47.044;15.744;2022-10-31T10:59:02;26.80;;;2.70;;
2772;SDS011;1394;47.044;15.744;2022-10-31T11:01:30;26.00;;;2.23;;
2772;SDS011;1394;47.044;15.744;2022-10-31T11:03:57;26.97;;;2.30;;
2772;SDS011;1394;47.044;15.744;2022-10-31T11:06:26;29.03;;;2.30;;
2772;SDS011;1394;47.044;15.744;2022-10-31T11:08:53;26.20;;;2.50;;
2772;SDS011;1394;47.044;15.744;2022-10-31T11:11:24;26.40;;;2.60;;
2772;SDS011;1394;47.044;15.744;2022-10-31T11:13:55;26.10;;;2.20;;
2772;SDS011;1394;47.044;15.744;2022-10-31T11:16:30;25.80;;;2.13;;
2772;SDS011;1394;47.044;15.744;2022-10-31T11:19:05;27.50;;;2.37;;
2772;SDS011;1394;47.044;15.744;2022-10-31T11:21:35;25.90;;;2.00;;
2772;SDS011;1394;47.044;15.744;2022-10-31T11:24:02;25.93;;;1.97;;
2772;SDS011;1394;47.044;15.744;2022-10-31T11:26:30;26.57;;;2.10;;
2772;SDS011;1394;47.044;15.744;2022-10-31T11:29:00;26.53;;;2.10;;
2772;SDS011;1394;47.044;15.744;2022-10-31T11:31:28;26.30;;;1.93;;
2772;SDS011;1394;47.044;15.744;2022-10-31T11:33:58;27.30;;;2.10;;
2772;SDS011;1394;47.044;15.744;2022-10-31T11:36:27;26.80;;;2.00;;
2772;SDS011;1394;47.044;15.744;2022-10-31T11:38:57;26.20;;;1.93;;
2772;SDS011;1394;47.044;15.744;2022-10-31T11:41:38;26.43;;;1.80;;
2772;SDS011;1394;47.044;15.744;2022-10-31T11:44:10;26.33;;;1.83;;
2772;SDS011;1394;47.044;15.744;2022-10-31T11:46:39;26.80;;;1.70;;
2772;SDS011;1394;47.044;15.744;2022-10-31T11:49:13;26.40;;;1.80;;
2772;SDS011;1394;47.044;15.744;2022-10-31T11:51:42;26.43;;;1.90;;
2772;SDS011;1394;47.044;15.744;2022-10-31T11:54:18;26.90;;;1.80;;
2772;SDS011;1394;47.044;15.744;2022-10-31T11:56:46;26.97;;;1.80;;
2772;SDS011;1394;47.044;15.744;2022-10-31T11:59:26;26.43;;;1.70;;
2772;SDS011;1394;47.044;15.744;2022-10-31T12:01:54;26.80;;;1.90;;
2772;SDS011;1394;47.044;15.744;2022-10-31T12:04:24;26.93;;;1.97;;
2772;SDS011;1394;47.044;15.744;2022-10-31T12:06:55;26.50;;;1.77;;
2772;SDS011;1394;47.044;15.744;2022-10-31T12:09:24;26.57;;;1.87;;
2772;SDS011;1394;47.044;15.744;2022-10-31T12:11:56;27.27;;;2.07;;
2772;SDS011;1394;47.044;15.744;2022-10-31T12:14:30;27.07;;;2.00;;
2772;SDS011;1394;47.044;15.744;2022-10-31T12:17:02;26.47;;;2.00;;
2772;SDS011;1394;47.044;15.744;2022-10-31T12:19:35;27.37;;;2.07;;
2772;SDS011;1394;47.044;15.744;2022-10-31T12:22:12;26.60;;;1.93;;
2772;SDS011;1394;47.044;15.744;2022-10-31T12:24:47;26.80;;;2.10;;
2772;SDS011;1394;47.044;15.744;2022-10-31T12:27:21;28.20;;;1.90;;
2772;SDS011;1394;47.044;15.744;2022-10-31T12:29:58;28.20;;;1.70;;
2772;SDS011;1394;47.044;15.744;2022-10-31T12:32:30;26.70;;;1.87;;
2772;SDS011;1394;47.044;15.744;2022-10-31T12:35:08;27.40;;;1.90;;
2772;SDS011;1394;47.044;15.744;2022-10-31T12:37:42;26.57;;;1.80;;
2772;SDS011;1394;47.044;15.744;2022-10-31T12:43:04;27.80;;;2.27;;
2772;SDS011;1394;47.044;15.744;2022-10-31T12:45:36;27.33;;;1.80;;
2772;SDS011;1394;47.044;15.744;2022-10-31T12:48:10;26.93;;;2.10;;
2772;SDS011;1394;47.044;15.744;2022-10-31T12:50:47;26.67;;;1.80;;
2772;SDS011;1394;47.044;15.744;2022-10-31T12:53:30;26.93;;;1.87;;
2772;SDS011;1394;47.044;15.744;2022-10-31T12:56:11;26.80;;;2.03;;
2772;SDS011;1394;47.044;15.744;2022-10-31T12:58:43;27.27;;;2.00;;
2772;SDS011;1394;47.044;15.744;2022-10-31T13:01:12;26.57;;;2.10;;
2772;SDS011;1394;47.044;15.744;2022-10-31T13:03:44;30.20;;;2.60;;
2772;SDS011;1394;47.044;15.744;2022-10-31T13:06:13;27.70;;;2.30;;
2772;SDS011;1394;47.044;15.744;2022-10-31T13:08:43;26.97;;;2.37;;
2772;SDS011;1394;47.044;15.744;2022-10-31T13:11:12;30.00;;;2.87;;
2772;SDS011;1394;47.044;15.744;2022-10-31T13:13:44;26.80;;;2.20;;
2772;SDS011;1394;47.044;15.744;2022-10-31T13:16:15;26.60;;;2.50;;
2772;SDS011;1394;47.044;15.744;2022-10-31T13:18:44;26.80;;;2.30;;
2772;SDS011;1394;47.044;15.744;2022-10-31T13:21:13;27.10;;;2.47;;
2772;SDS011;1394;47.044;15.744;2022-10-31T13:23:44;26.57;;;2.40;;
2772;SDS011;1394;47.044;15.744;2022-10-31T13:26:12;26.37;;;2.10;;
2772;SDS011;1394;47.044;15.744;2022-10-31T13:28:43;27.23;;;2.67;;
2772;SDS011;1394;47.044;15.744;2022-10-31T13:31:11;27.00;;;3.30;;
2772;SDS011;1394;47.044;15.744;2022-10-31T13:33:39;28.67;;;4.13;;
2772;SDS011;1394;47.044;15.744;2022-10-31T13:36:14;26.80;;;2.70;;
2772;SDS011;1394;47.044;15.744;2022-10-31T13:38:45;26.63;;;2.70;;
2772;SDS011;1394;47.044;15.744;2022-10-31T13:41:30;26.83;;;2.70;;
2772;SDS011;1394;47.044;15.744;2022-10-31T13:44:01;26.40;;;2.50;;
2772;SDS011;1394;47.044;15.744;2022-10-31T13:46:36;28.17;;;3.37;;
2772;SDS011;1394;47.044;15.744;2022-10-31T13:49:21;26.90;;;2.70;;
2772;SDS011;1394;47.044;15.744;2022-10-31T13:51:50;26.67;;;2.80;;
2772;SDS011;1394;47.044;15.744;2022-10-31T13:54:21;26.80;;;2.90;;
2772;SDS011;1394;47.044;15.744;2022-10-31T13:56:49;28.83;;;5.47;;
2772;SDS011;1394;47.044;15.744;2022-10-31T13:59:19;29.70;;;6.73;;
2772;SDS011;1394;47.044;15.744;2022-10-31T14:01:50;27.83;;;3.60;;
2772;SDS011;1394;47.044;15.744;2022-10-31T14:04:19;26.80;;;3.07;;
2772;SDS011;1394;47.044;15.744;2022-10-31T14:06:58;28.00;;;3.70;;
2772;SDS011;1394;47.044;15.744;2022-10-31T14:09:29;27.30;;;3.17;;
2772;SDS011;1394;47.044;15.744;2022-10-31T14:11:57;27.30;;;3.30;;
2772;SDS011;1394;47.044;15.744;2022-10-31T14:14:30;26.73;;;3.00;;
2772;SDS011;1394;47.044;15.744;2022-10-31T14:17:00;27.70;;;2.90;;
2772;SDS011;1394;47.044;15.744;2022-10-31T14:19:28;26.70;;;2.57;;
2772;SDS011;1394;47.044;15.744;2022-10-31T14:21:55;27.40;;;3.07;;
2772;SDS011;1394;47.044;15.744;2022-10-31T14:24:33;27.27;;;3.47;;
2772;SDS011;1394;47.044;15.744;2022-10-31T14:27:01;26.50;;;2.73;;
2772;SDS011;1394;47.044;15.744;2022-10-31T14:29:30;26.50;;;2.80;;
2772;SDS011;1394;47.044;15.744;2022-10-31T14:32:00;27.27;;;3.23;;
2772;SDS011;1394;47.044;15.744;2022-10-31T14:34:36;26.50;;;3.03;;
2772;SDS011;1394;47.044;15.744;2022-10-31T14:37:12;26.87;;;2.93;;
2772;SDS011;1394;47.044;15.744;2022-10-31T14:39:43;26.90;;;3.20;;
2772;SDS011;1394;47.044;15.744;2022-10-31T14:42:17;26.67;;;3.37;;
2772;SDS011;1394;47.044;15.744;2022-10-31T14:44:57;26.97;;;3.20;;
2772;SDS011;1394;47.044;15.744;2022-10-31T14:47:30;28.40;;;3.50;;
2772;SDS011;1394;47.044;15.744;2022-10-31T14:50:12;26.90;;;3.67;;
2772;SDS011;1394;47.044;15.744;2022-10-31T14:52:41;28.20;;;3.10;;
2772;SDS011;1394;47.044;15.744;2022-10-31T14:55:10;26.87;;;3.00;;
2772;SDS011;1394;47.044;15.744;2022-10-31T14:57:39;28.97;;;3.30;;
2772;SDS011;1394;47.044;15.744;2022-10-31T15:00:15;27.37;;;3.07;;
2772;SDS011;1394;47.044;15.744;2022-10-31T15:02:45;26.47;;;3.10;;
2772;SDS011;1394;47.044;15.744;2022-10-31T15:05:15;26.50;;;2.63;;
2772;SDS011;1394;47.044;15.744;2022-10-31T15:07:48;26.97;;;3.53;;
2772;SDS011;1394;47.044;15.744;2022-10-31T15:10:19;27.10;;;3.10;;
2772;SDS011;1394;47.044;15.744;2022-10-31T15:12:46;27.37;;;3.20;;